Time;durP1;ratioP1;P1;durP2;ratioP2;P2;SDS_P1;SDS_P2;PMS_P1;PMS_P2;Temp;Humidity;BMP_temperature;BMP_pressure;BME280_temperature;BME280_humidity;BME280_pressure;Samples;Min_cycle;Max_cycle;Signal;HPM_P1;HPM_P2
2022/02/23 00:01:41;;;;;;;;;;;7.90;99.90;;;;;;4418272;32;46188;-80
2022/02/23 00:04:10;;;;;;;;;;;7.90;99.90;;;;;;4420418;32;44952;-79
2022/02/23 00:06:38;;;;;;;;;;;7.90;99.90;;;;;;4420888;32;20015;-79
2022/02/23 00:09:05;;;;;;;;;;;7.90;99.90;;;;;;4419253;32;44224;-79
2022/02/23 00:11:32;;;;;;;;;;;7.90;99.90;;;;;;4419724;32;44330;-80
2022/02/23 00:13:59;;;;;;;;;;;7.80;99.90;;;;;;4419774;32;44132;-80
2022/02/23 00:16:26;;;;;;;;;;;7.80;99.90;;;;;;4420053;32;42613;-79
2022/02/23 00:18:54;;;;;;;;;;;7.80;99.90;;;;;;4419779;32;43778;-79
2022/02/23 00:21:21;;;;;;;;;;;7.80;99.90;;;;;;4419788;32;44131;-80
2022/02/23 00:23:50;;;;;;;;;;;7.80;99.90;;;;;;4419139;32;45468;-80
2022/02/23 00:26:17;;;;;;;;;;;7.80;99.90;;;;;;4418555;32;45968;-79
2022/02/23 00:28:44;;;;;;;;;;;7.80;99.90;;;;;;4419745;32;42463;-80
2022/02/23 00:31:11;;;;;;;;;;;7.80;99.90;;;;;;4418659;32;45316;-80
2022/02/23 00:33:41;;;;;;;;;;;7.80;99.90;;;;;;4419726;32;44150;-79
2022/02/23 00:36:08;;;;;;;;;;;7.80;99.90;;;;;;4418642;32;42660;-79
2022/02/23 00:38:35;;;;;;;;;;;7.80;99.90;;;;;;4419928;32;44222;-79
2022/02/23 00:41:03;;;;;;;;;;;7.80;99.90;;;;;;4418943;32;44276;-79
2022/02/23 00:43:30;;;;;;;;;;;7.80;99.90;;;;;;4419638;32;43730;-79
2022/02/23 00:45:57;;;;;;;;;;;7.70;99.90;;;;;;4420258;32;43591;-79
2022/02/23 00:48:24;;;;;;;;;;;7.70;99.90;;;;;;4418642;32;43752;-79
2022/02/23 00:50:51;;;;;;;;;;;7.70;99.90;;;;;;4419560;32;44222;-79
2022/02/23 00:53:18;;;;;;;;;;;7.70;99.90;;;;;;4418513;32;43043;-79
2022/02/23 00:55:45;;;;;;;;;;;7.70;99.90;;;;;;4419500;32;45067;-79
2022/02/23 00:58:13;;;;;;;;;;;7.70;99.90;;;;;;4418616;32;43953;-80
2022/02/23 01:00:40;;;;;;;;;;;7.60;99.90;;;;;;4419880;32;43778;-79
2022/02/23 01:03:07;;;;;;;;;;;7.70;99.90;;;;;;4418460;32;43496;-79
2022/02/23 01:05:35;;;;;;;;;;;7.60;99.90;;;;;;4419425;32;44656;-79
2022/02/23 01:08:05;;;;;;;;;;;7.60;99.90;;;;;;4419271;32;45696;-79
2022/02/23 01:10:32;;;;;;;;;;;7.60;99.90;;;;;;4418652;32;44273;-79
2022/02/23 01:12:59;;;;;;;;;;;7.60;99.90;;;;;;4421166;32;43502;-79
2022/02/23 01:15:29;;;;;;;;;;;7.60;99.90;;;;;;4422641;32;43217;-79
2022/02/23 01:17:57;;;;;;;;;;;7.60;99.90;;;;;;4421632;32;43234;-79
2022/02/23 01:20:24;;;;;;;;;;;7.60;99.90;;;;;;4422080;32;45651;-79
2022/02/23 01:22:55;;;;;;;;;;;7.60;99.90;;;;;;4421073;32;44384;-79
2022/02/23 01:25:24;;;;;;;;;;;7.50;99.90;;;;;;4422497;32;44286;-80
2022/02/23 01:27:59;;;;;;;;;;;7.50;99.90;;;;;;4421476;32;45536;-80
2022/02/23 01:30:26;;;;;;;;;;;7.50;99.90;;;;;;4421969;32;43453;-80
2022/02/23 01:32:53;;;;;;;;;;;7.50;99.90;;;;;;4422151;32;43815;-79
2022/02/23 01:35:21;;;;;;;;;;;7.50;99.90;;;;;;4421594;32;42623;-79
2022/02/23 01:37:48;;;;;;;;;;;7.50;99.90;;;;;;4422012;32;43514;-79
2022/02/23 01:40:15;;;;;;;;;;;7.40;99.90;;;;;;4420840;32;43478;-79
2022/02/23 01:42:42;;;;;;;;;;;7.40;99.90;;;;;;4420755;32;42822;-79
2022/02/23 01:45:12;;;;;;;;;;;7.40;99.90;;;;;;4422227;32;42495;-79
2022/02/23 01:47:39;;;;;;;;;;;7.40;99.90;;;;;;4420671;32;44318;-79
2022/02/23 01:50:12;;;;;;;;;;;7.40;99.90;;;;;;4422406;32;43863;-79
2022/02/23 01:52:39;;;;;;;;;;;7.30;99.90;;;;;;4422104;32;43287;-79
2022/02/23 01:55:07;;;;;;;;;;;7.30;99.90;;;;;;4420973;32;42677;-80
2022/02/23 01:57:35;;;;;;;;;;;7.30;99.90;;;;;;4421998;32;43817;-79
2022/02/23 02:00:04;;;;;;;;;;;7.20;99.90;;;;;;4422031;32;43984;-79
2022/02/23 02:02:31;;;;;;;;;;;7.20;99.90;;;;;;4420410;32;44507;-79
2022/02/23 02:04:58;;;;;;;;;;;7.20;99.90;;;;;;4420625;32;42838;-79
2022/02/23 02:07:25;;;;;;;;;;;7.20;99.90;;;;;;4420292;32;42645;-79
2022/02/23 02:09:52;;;;;;;;;;;7.10;99.90;;;;;;4420372;32;42734;-79
2022/02/23 02:12:19;;;;;;;;;;;7.10;99.90;;;;;;4420830;32;44255;-79
2022/02/23 02:14:46;;;;;;;;;;;7.10;99.90;;;;;;4422046;32;44045;-79
2022/02/23 02:17:13;;;;;;;;;;;7.10;99.90;;;;;;4421380;32;44049;-79
2022/02/23 02:19:40;;;;;;;;;;;7.10;99.90;;;;;;4421812;32;43891;-79
2022/02/23 02:22:08;;;;;;;;;;;7.10;99.90;;;;;;4420637;32;43121;-79
2022/02/23 02:24:37;;;;;;;;;;;7.10;99.90;;;;;;4421232;32;44739;-79
2022/02/23 02:27:05;;;;;;;;;;;7.10;99.90;;;;;;4420482;32;43249;-79
2022/02/23 02:29:33;;;;;;;;;;;7.10;99.90;;;;;;4421139;32;45081;-79
2022/02/23 02:32:02;;;;;;;;;;;7.00;99.90;;;;;;4420118;32;43932;-79
2022/02/23 02:34:32;;;;;;;;;;;7.00;99.90;;;;;;4420565;32;43594;-79
2022/02/23 02:37:00;;;;;;;;;;;7.00;99.90;;;;;;4420396;32;44026;-79
2022/02/23 02:39:27;;;;;;;;;;;7.00;99.90;;;;;;4421351;32;43944;-79
2022/02/23 02:41:54;;;;;;;;;;;7.00;99.90;;;;;;4420187;32;43217;-79
2022/02/23 02:44:23;;;;;;;;;;;7.00;99.90;;;;;;4419813;32;44092;-79
2022/02/23 02:46:51;;;;;;;;;;;6.90;99.90;;;;;;4421476;32;44163;-79
2022/02/23 02:49:18;;;;;;;;;;;6.90;99.90;;;;;;4421167;32;43542;-79
2022/02/23 02:51:48;;;;;;;;;;;6.90;99.90;;;;;;4421298;32;44202;-80
2022/02/23 02:54:15;;;;;;;;;;;6.90;99.90;;;;;;4419649;32;43082;-80
2022/02/23 02:56:42;;;;;;;;;;;6.90;99.90;;;;;;4419926;32;43692;-79
2022/02/23 02:59:09;;;;;;;;;;;6.90;99.90;;;;;;4420686;32;42857;-79
2022/02/23 03:01:37;;;;;;;;;;;6.90;99.90;;;;;;4420779;32;43334;-80
2022/02/23 03:04:06;;;;;;;;;;;6.80;99.90;;;;;;4419576;32;42931;-79
2022/02/23 03:06:34;;;;;;;;;;;6.80;99.90;;;;;;4419958;32;43424;-79
2022/02/23 03:09:01;;;;;;;;;;;6.80;99.90;;;;;;4419542;32;43031;-80
2022/02/23 03:11:28;;;;;;;;;;;6.80;99.90;;;;;;4420785;32;42552;-80
2022/02/23 03:13:55;;;;;;;;;;;6.80;99.90;;;;;;4420477;32;44627;-79
2022/02/23 03:16:22;;;;;;;;;;;6.80;99.90;;;;;;4420679;32;43916;-79
2022/02/23 03:18:49;;;;;;;;;;;6.80;99.90;;;;;;4420876;32;43531;-79
2022/02/23 03:21:17;;;;;;;;;;;6.80;99.90;;;;;;4419253;32;45535;-79
2022/02/23 03:23:44;;;;;;;;;;;6.80;99.90;;;;;;4421026;32;43988;-79
2022/02/23 03:26:12;;;;;;;;;;;6.80;99.90;;;;;;4419262;32;42663;-79
2022/02/23 03:28:40;;;;;;;;;;;6.70;99.90;;;;;;4419159;32;42804;-79
2022/02/23 03:31:08;;;;;;;;;;;6.70;99.90;;;;;;4420577;32;43051;-79
2022/02/23 03:33:42;;;;;;;;;;;6.70;99.90;;;;;;4420345;32;44531;-80
2022/02/23 03:36:13;;;;;;;;;;;6.70;99.90;;;;;;4419120;32;44201;-79
2022/02/23 03:38:43;;;;;;;;;;;6.70;99.90;;;;;;4420239;32;20000;-79
2022/02/23 03:41:10;;;;;;;;;;;6.70;99.90;;;;;;4419335;32;43103;-79
2022/02/23 03:43:38;;;;;;;;;;;6.70;99.90;;;;;;4420480;32;45771;-79
2022/02/23 03:46:07;;;;;;;;;;;6.70;99.90;;;;;;4418915;32;44285;-79
2022/02/23 03:48:37;;;;;;;;;;;6.70;99.90;;;;;;4419489;32;43897;-79
2022/02/23 03:51:05;;;;;;;;;;;6.70;99.90;;;;;;4419130;32;44175;-79
2022/02/23 03:53:33;;;;;;;;;;;6.70;99.90;;;;;;4419965;32;44063;-79
2022/02/23 03:56:00;;;;;;;;;;;6.60;99.90;;;;;;4419051;32;43358;-79
2022/02/23 03:58:27;;;;;;;;;;;6.60;99.90;;;;;;4420477;32;42551;-79
2022/02/23 04:00:54;;;;;;;;;;;6.60;99.90;;;;;;4418857;32;44438;-79
2022/02/23 04:03:21;;;;;;;;;;;6.60;99.90;;;;;;4418765;32;43909;-79
2022/02/23 04:05:48;;;;;;;;;;;6.60;99.90;;;;;;4418998;32;44195;-79
2022/02/23 04:08:18;;;;;;;;;;;6.60;99.90;;;;;;4419374;32;45368;-79
2022/02/23 04:10:47;;;;;;;;;;;6.60;99.90;;;;;;4420051;32;45296;-79
2022/02/23 04:13:14;;;;;;;;;;;6.60;99.90;;;;;;4420378;32;43135;-79
2022/02/23 04:15:44;;;;;;;;;;;6.60;99.90;;;;;;4418898;32;42619;-79
2022/02/23 04:18:13;;;;;;;;;;;6.50;99.90;;;;;;4420347;32;44250;-79
2022/02/23 04:20:40;;;;;;;;;;;6.60;99.90;;;;;;4418949;32;42664;-79
2022/02/23 04:23:08;;;;;;;;;;;6.50;99.90;;;;;;4419283;32;43752;-79
2022/02/23 04:25:35;;;;;;;;;;;6.60;99.90;;;;;;4419168;32;45076;-79
2022/02/23 04:28:02;;;;;;;;;;;6.60;99.90;;;;;;4418634;32;42020;-79
2022/02/23 04:30:29;;;;;;;;;;;6.50;99.90;;;;;;4418612;32;43809;-79
2022/02/23 04:32:58;;;;;;;;;;;6.60;99.90;;;;;;4418815;32;43494;-79
2022/02/23 04:35:25;;;;;;;;;;;6.60;99.90;;;;;;4419669;32;42796;-79
2022/02/23 04:37:54;;;;;;;;;;;6.50;99.90;;;;;;4418958;32;43875;-79
2022/02/23 04:40:21;;;;;;;;;;;6.50;99.90;;;;;;4419063;32;43224;-79
2022/02/23 04:42:50;;;;;;;;;;;6.50;99.90;;;;;;4419988;32;45133;-79
2022/02/23 04:45:17;;;;;;;;;;;6.50;99.90;;;;;;4419145;32;42987;-79
2022/02/23 04:47:44;;;;;;;;;;;6.50;99.90;;;;;;4420473;32;44044;-79
2022/02/23 04:50:11;;;;;;;;;;;6.50;99.90;;;;;;4422037;32;45046;-79
2022/02/23 04:52:40;;;;;;;;;;;6.50;99.90;;;;;;4421954;32;44552;-79
2022/02/23 04:55:07;;;;;;;;;;;6.40;99.90;;;;;;4421921;32;44551;-79
2022/02/23 04:57:34;;;;;;;;;;;6.40;99.90;;;;;;4421427;32;42866;-79
2022/02/23 05:00:02;;;;;;;;;;;6.40;99.90;;;;;;4422437;32;44796;-79
2022/02/23 05:02:31;;;;;;;;;;;6.40;99.90;;;;;;4420627;32;43474;-79
2022/02/23 05:04:59;;;;;;;;;;;6.40;99.90;;;;;;4421603;32;43783;-79
2022/02/23 05:07:28;;;;;;;;;;;6.40;99.90;;;;;;4421627;32;43768;-79
2022/02/23 05:09:56;;;;;;;;;;;6.30;99.90;;;;;;4421192;32;44868;-79
2022/02/23 05:12:24;;;;;;;;;;;6.30;99.90;;;;;;4421427;32;43865;-79
2022/02/23 05:14:51;;;;;;;;;;;6.30;99.90;;;;;;4420741;32;42878;-79
2022/02/23 05:17:18;;;;;;;;;;;6.30;99.90;;;;;;4422267;32;44684;-79
2022/02/23 05:19:46;;;;;;;;;;;6.30;99.90;;;;;;4422727;32;43913;-79
2022/02/23 05:22:14;;;;;;;;;;;6.30;99.90;;;;;;4421599;32;43262;-78
2022/02/23 05:24:41;;;;;;;;;;;6.30;99.90;;;;;;4422110;32;42345;-79
2022/02/23 05:27:08;;;;;;;;;;;6.30;99.90;;;;;;4422355;32;43930;-79
2022/02/23 05:29:35;;;;;;;;;;;6.20;99.90;;;;;;4421579;32;43622;-79
2022/02/23 05:32:06;;;;;;;;;;;6.20;99.90;;;;;;4420884;32;44289;-79
2022/02/23 05:34:33;;;;;;;;;;;6.20;99.90;;;;;;4420938;32;43213;-79
2022/02/23 05:37:00;;;;;;;;;;;6.20;99.90;;;;;;4421329;32;42282;-79
2022/02/23 05:39:27;;;;;;;;;;;6.20;99.90;;;;;;4420185;32;43783;-79
2022/02/23 05:41:56;;;;;;;;;;;6.20;99.90;;;;;;4421682;32;19999;-79
2022/02/23 05:44:23;;;;;;;;;;;6.20;99.90;;;;;;4420962;32;43881;-79
2022/02/23 05:46:51;;;;;;;;;;;6.30;99.90;;;;;;4421304;32;44036;-79
2022/02/23 05:49:18;;;;;;;;;;;6.20;99.90;;;;;;4420508;32;43008;-79
2022/02/23 05:51:48;;;;;;;;;;;6.20;99.90;;;;;;4421264;32;42977;-79
2022/02/23 05:54:16;;;;;;;;;;;6.20;99.90;;;;;;4420795;32;44192;-79
2022/02/23 05:56:43;;;;;;;;;;;6.20;99.90;;;;;;4421793;32;42978;-79
2022/02/23 05:59:12;;;;;;;;;;;6.20;99.90;;;;;;4421173;32;42616;-79
2022/02/23 06:01:39;;;;;;;;;;;6.20;99.90;;;;;;4420571;32;43192;-79
2022/02/23 06:04:06;;;;;;;;;;;6.20;99.90;;;;;;4420567;32;42801;-79
2022/02/23 06:06:33;;;;;;;;;;;6.20;99.90;;;;;;4421956;32;41585;-79
2022/02/23 06:09:00;;;;;;;;;;;6.10;99.90;;;;;;4420804;32;44573;-79
2022/02/23 06:11:28;;;;;;;;;;;6.10;99.90;;;;;;4420432;32;43376;-79
2022/02/23 06:13:55;;;;;;;;;;;6.10;99.90;;;;;;4420878;32;46189;-79
2022/02/23 06:16:23;;;;;;;;;;;6.10;99.90;;;;;;4420700;32;44340;-79
2022/02/23 06:18:51;;;;;;;;;;;6.10;99.90;;;;;;4421436;32;44069;-79
2022/02/23 06:21:20;;;;;;;;;;;6.10;99.90;;;;;;4421351;32;43456;-79
2022/02/23 06:23:48;;;;;;;;;;;6.10;99.90;;;;;;4420262;32;45047;-79
2022/02/23 06:26:15;;;;;;;;;;;6.10;99.90;;;;;;4420061;32;46055;-79
2022/02/23 06:28:42;;;;;;;;;;;6.00;99.90;;;;;;4420090;32;44360;-79
2022/02/23 06:31:09;;;;;;;;;;;6.00;99.90;;;;;;4420621;32;44179;-79
2022/02/23 06:33:41;;;;;;;;;;;6.00;99.90;;;;;;4420361;32;44659;-79
2022/02/23 06:36:09;;;;;;;;;;;6.00;99.90;;;;;;4421264;32;42514;-79
2022/02/23 06:38:38;;;;;;;;;;;6.00;99.90;;;;;;4420594;32;43205;-79
2022/02/23 06:41:08;;;;;;;;;;;6.00;99.90;;;;;;4420187;32;43508;-79
2022/02/23 06:43:36;;;;;;;;;;;6.00;99.90;;;;;;4420220;32;44026;-79
2022/02/23 06:46:04;;;;;;;;;;;6.10;99.90;;;;;;4421413;32;44253;-79
2022/02/23 06:48:32;;;;;;;;;;;6.00;99.90;;;;;;4420364;32;44351;-79
2022/02/23 06:50:59;;;;;;;;;;;6.00;99.90;;;;;;4419783;32;44095;-79
2022/02/23 06:53:27;;;;;;;;;;;6.00;99.90;;;;;;4419796;32;43655;-79
2022/02/23 06:55:54;;;;;;;;;;;6.00;99.90;;;;;;4420779;32;44206;-79
2022/02/23 06:58:22;;;;;;;;;;;6.00;99.90;;;;;;4421107;32;42699;-79
2022/02/23 07:00:49;;;;;;;;;;;6.00;99.90;;;;;;4421119;32;42765;-79
2022/02/23 07:03:16;;;;;;;;;;;6.00;99.90;;;;;;4419514;32;43903;-79
2022/02/23 07:05:43;;;;;;;;;;;6.00;99.90;;;;;;4420731;32;45086;-79
2022/02/23 07:08:14;;;;;;;;;;;6.00;99.90;;;;;;4419688;32;43212;-79
2022/02/23 07:10:42;;;;;;;;;;;6.00;99.90;;;;;;4420847;32;43439;-79
2022/02/23 07:13:11;;;;;;;;;;;6.00;99.90;;;;;;4420843;32;44231;-79
2022/02/23 07:15:38;;;;;;;;;;;6.00;99.90;;;;;;4419411;32;43042;-79
2022/02/23 07:18:05;;;;;;;;;;;6.00;99.90;;;;;;4419915;32;43474;-79
2022/02/23 07:20:34;;;;;;;;;;;6.00;99.90;;;;;;4419560;32;43076;-79
2022/02/23 07:23:01;;;;;;;;;;;6.00;99.90;;;;;;4420846;32;43335;-79
2022/02/23 07:25:28;;;;;;;;;;;6.00;99.90;;;;;;4419653;32;43033;-79
2022/02/23 07:27:55;;;;;;;;;;;6.00;99.90;;;;;;4419470;32;42717;-79
2022/02/23 07:30:23;;;;;;;;;;;6.00;99.90;;;;;;4422443;32;20376;-79
2022/02/23 07:32:50;;;;;;;;;;;6.00;99.90;;;;;;4419324;32;44024;-79
2022/02/23 07:35:19;;;;;;;;;;;6.10;99.90;;;;;;4419727;32;44271;-79
2022/02/23 07:37:49;;;;;;;;;;;6.10;99.90;;;;;;4420676;32;43926;-79
2022/02/23 07:40:20;;;;;;;;;;;6.10;99.90;;;;;;4420630;32;44561;-79
2022/02/23 07:43:07;;;;;;;;;;;6.10;99.90;;;;;;4420308;32;20000;-80
2022/02/23 07:45:40;;;;;;;;;;;6.10;99.90;;;;;;4419305;32;42255;-79
2022/02/23 07:48:08;;;;;;;;;;;6.10;99.90;;;;;;4419384;32;43193;-79
2022/02/23 07:50:37;;;;;;;;;;;6.10;99.90;;;;;;4419362;32;46249;-79
2022/02/23 07:53:05;;;;;;;;;;;6.10;99.90;;;;;;4420383;32;46088;-79
2022/02/23 07:55:36;;;;;;;;;;;6.10;99.90;;;;;;4418853;32;45161;-79
2022/02/23 07:58:04;;;;;;;;;;;6.10;99.90;;;;;;4420553;32;43910;-79
2022/02/23 08:00:31;;;;;;;;;;;6.10;99.90;;;;;;4420114;32;42487;-79
2022/02/23 08:02:58;;;;;;;;;;;6.10;99.90;;;;;;4419810;32;45080;-80
2022/02/23 08:05:26;;;;;;;;;;;6.10;99.90;;;;;;4419333;32;44319;-79
2022/02/23 08:07:57;;;;;;;;;;;6.10;99.90;;;;;;4419922;32;44251;-79
2022/02/23 08:10:25;;;;;;;;;;;6.20;99.90;;;;;;4420240;32;43343;-79
2022/02/23 08:12:55;;;;;;;;;;;6.20;99.90;;;;;;4419916;32;44170;-79
2022/02/23 08:21:00;;;;;;;;;;;6.20;99.90;;;;;;4420068;32;44286;-79
2022/02/23 08:23:27;;;;;;;;;;;6.20;99.90;;;;;;4422518;32;44089;-80
2022/02/23 08:25:54;;;;;;;;;;;6.20;99.90;;;;;;4423055;32;44451;-80
2022/02/23 08:28:21;;;;;;;;;;;6.20;99.90;;;;;;4423418;32;44349;-79
2022/02/23 08:30:48;;;;;;;;;;;6.20;99.90;;;;;;4423242;32;45491;-80
2022/02/23 08:33:15;;;;;;;;;;;6.20;99.90;;;;;;4422975;32;43046;-79
2022/02/23 08:35:45;;;;;;;;;;;6.20;99.90;;;;;;4423011;32;44458;-79
2022/02/23 08:38:13;;;;;;;;;;;6.20;99.90;;;;;;4421723;32;42298;-79
2022/02/23 08:40:43;;;;;;;;;;;6.30;99.90;;;;;;4423187;32;43108;-79
2022/02/23 08:43:11;;;;;;;;;;;6.30;99.90;;;;;;4423226;32;44805;-79
2022/02/23 08:45:38;;;;;;;;;;;6.30;99.90;;;;;;4422697;32;41971;-80
2022/02/23 08:48:08;;;;;;;;;;;6.20;99.90;;;;;;4422990;32;44014;-80
2022/02/23 08:50:36;;;;;;;;;;;6.30;99.90;;;;;;4421860;32;43192;-79
2022/02/23 08:53:03;;;;;;;;;;;6.30;99.90;;;;;;4423030;32;43826;-79
2022/02/23 08:55:30;;;;;;;;;;;6.30;99.90;;;;;;4422673;32;42936;-80
2022/02/23 08:58:01;;;;;;;;;;;6.30;99.90;;;;;;4422105;32;44912;-79
2022/02/23 09:00:28;;;;;;;;;;;6.30;99.90;;;;;;4422416;32;44213;-79
2022/02/23 09:02:55;;;;;;;;;;;6.30;99.90;;;;;;4422421;32;44266;-80
2022/02/23 09:05:22;;;;;;;;;;;6.30;99.90;;;;;;4421807;32;44012;-79
2022/02/23 09:07:49;;;;;;;;;;;6.30;99.90;;;;;;4421355;32;42957;-79
2022/02/23 09:10:16;;;;;;;;;;;6.30;99.90;;;;;;4422727;32;46017;-80
2022/02/23 09:12:43;;;;;;;;;;;6.40;99.90;;;;;;4422345;32;43556;-79
2022/02/23 09:15:12;;;;;;;;;;;6.40;99.90;;;;;;4421317;32;43532;-80
2022/02/23 09:17:41;;;;;;;;;;;6.40;99.90;;;;;;4421238;32;45014;-80
2022/02/23 09:20:08;;;;;;;;;;;6.40;99.90;;;;;;4421412;32;43022;-79
2022/02/23 09:22:35;;;;;;;;;;;6.40;99.90;;;;;;4422534;32;42584;-79
2022/02/23 09:25:04;;;;;;;;;;;6.40;99.90;;;;;;4421082;32;44371;-79
2022/02/23 09:27:31;;;;;;;;;;;6.40;99.90;;;;;;4421440;32;45779;-80
2022/02/23 09:30:01;;;;;;;;;;;6.40;99.90;;;;;;4422327;32;43482;-80
2022/02/23 09:32:28;;;;;;;;;;;6.40;99.90;;;;;;4421297;32;44437;-80
2022/02/23 09:34:55;;;;;;;;;;;6.50;99.90;;;;;;4422338;32;42054;-79
2022/02/23 09:37:22;;;;;;;;;;;6.40;99.90;;;;;;4422339;32;44090;-80
2022/02/23 09:39:49;;;;;;;;;;;6.50;99.90;;;;;;4421873;32;44711;-80
2022/02/23 09:42:18;;;;;;;;;;;6.50;99.90;;;;;;4421047;32;44113;-80
2022/02/23 09:44:45;;;;;;;;;;;6.50;99.90;;;;;;4421188;32;43529;-80
2022/02/23 09:47:32;;;;;;;;;;;6.50;99.90;;;;;;4422392;32;43474;-80
2022/02/23 09:49:59;;;;;;;;;;;6.50;99.90;;;;;;4422162;32;44967;-80
2022/02/23 09:52:26;;;;;;;;;;;6.60;99.90;;;;;;4421105;32;43928;-80
2022/02/23 09:54:57;;;;;;;;;;;6.60;99.90;;;;;;4421188;32;43225;-80
2022/02/23 09:57:25;;;;;;;;;;;6.60;99.90;;;;;;4421675;32;43524;-81
2022/02/23 09:59:52;;;;;;;;;;;6.60;99.90;;;;;;4422115;32;44968;-81
2022/02/23 10:02:20;;;;;;;;;;;6.60;99.90;;;;;;4421505;32;44461;-81
2022/02/23 10:04:51;;;;;;;;;;;6.70;99.90;;;;;;4422022;32;45583;-81
2022/02/23 10:07:30;;;;;;;;;;;6.70;99.90;;;;;;4421009;32;44095;-81
2022/02/23 10:10:00;;;;;;;;;;;6.70;99.90;;;;;;4421038;32;44990;-81
2022/02/23 10:12:27;;;;;;;;;;;6.70;99.90;;;;;;4422020;32;44175;-81
2022/02/23 10:15:11;;;;;;;;;;;6.80;99.90;;;;;;4422264;32;20022;-80
2022/02/23 10:17:41;;;;;;;;;;;6.80;99.90;;;;;;4420459;32;44099;-81
2022/02/23 10:20:25;;;;;;;;;;;6.80;99.90;;;;;;4420496;32;42664;-81
2022/02/23 10:22:57;;;;;;;;;;;6.80;99.90;;;;;;4420698;32;45663;-81
2022/02/23 10:25:25;;;;;;;;;;;6.90;99.90;;;;;;4421644;32;43495;-81
2022/02/23 10:28:09;;;;;;;;;;;6.90;99.90;;;;;;4421609;32;43196;-81
2022/02/23 10:30:54;;;;;;;;;;;6.90;99.90;;;;;;4420672;32;43825;-81
2022/02/23 10:33:23;;;;;;;;;;;6.90;99.90;;;;;;4420189;32;43494;-81
2022/02/23 10:36:13;;;;;;;;;;;7.00;99.90;;;;;;4420690;32;46428;-81
2022/02/23 10:38:42;;;;;;;;;;;7.00;99.90;;;;;;4419970;32;44079;-81
2022/02/23 10:41:22;;;;;;;;;;;7.00;99.90;;;;;;4421520;32;44165;-81
2022/02/23 10:43:50;;;;;;;;;;;7.00;99.90;;;;;;4420468;32;45810;-82
2022/02/23 10:46:21;;;;;;;;;;;7.10;99.90;;;;;;4419853;32;43183;-81
2022/02/23 10:48:51;;;;;;;;;;;7.10;99.90;;;;;;4420352;32;43809;-81
2022/02/23 10:51:25;;;;;;;;;;;7.20;99.90;;;;;;4420868;32;44030;-81
2022/02/23 10:53:52;;;;;;;;;;;7.20;99.90;;;;;;4420819;32;42930;-80
2022/02/23 10:56:22;;;;;;;;;;;7.20;99.90;;;;;;4421052;32;43203;-81
2022/02/23 10:58:59;;;;;;;;;;;7.30;99.90;;;;;;4421472;32;44054;-81
2022/02/23 11:01:27;;;;;;;;;;;7.30;99.90;;;;;;4419941;32;43274;-82
2022/02/23 11:03:54;;;;;;;;;;;7.30;99.90;;;;;;4419617;32;44834;-81
2022/02/23 11:06:23;;;;;;;;;;;7.30;99.90;;;;;;4419549;32;45357;-81
2022/02/23 11:08:51;;;;;;;;;;;7.40;99.90;;;;;;4421185;32;45788;-82
2022/02/23 11:11:19;;;;;;;;;;;7.40;99.90;;;;;;4419949;32;43221;-82
2022/02/23 11:13:47;;;;;;;;;;;7.40;99.90;;;;;;4419476;32;43848;-82
2022/02/23 11:16:15;;;;;;;;;;;7.50;99.90;;;;;;4421348;32;20004;-82
2022/02/23 11:18:45;;;;;;;;;;;7.50;99.90;;;;;;4419482;32;43848;-81
2022/02/23 11:21:12;;;;;;;;;;;7.50;99.90;;;;;;4420444;32;42775;-81
2022/02/23 11:23:40;;;;;;;;;;;7.60;99.90;;;;;;4419269;32;44105;-82
2022/02/23 11:26:08;;;;;;;;;;;7.60;99.90;;;;;;4420743;32;44033;-82
2022/02/23 11:28:40;;;;;;;;;;;7.60;99.90;;;;;;4419639;32;45923;-82
2022/02/23 11:31:13;;;;;;;;;;;7.70;99.90;;;;;;4419812;32;45763;-81
2022/02/23 11:33:46;;;;;;;;;;;7.70;99.90;;;;;;4419981;32;44968;-82
2022/02/23 11:36:24;;;;;;;;;;;7.70;99.90;;;;;;4419159;32;43046;-81
2022/02/23 11:38:53;;;;;;;;;;;7.70;99.90;;;;;;4420710;32;42018;-82
2022/02/23 11:41:25;;;;;;;;;;;7.80;99.90;;;;;;4419080;32;46045;-82
2022/02/23 11:44:14;;;;;;;;;;;7.80;99.90;;;;;;4419732;32;44184;-82
2022/02/23 11:46:50;;;;;;;;;;;7.80;99.90;;;;;;4420164;32;22716;-82
2022/02/23 11:49:20;;;;;;;;;;;7.90;99.90;;;;;;4419107;32;42302;-82
2022/02/23 11:51:48;;;;;;;;;;;7.90;99.90;;;;;;4419141;32;44099;-82
2022/02/23 11:54:35;;;;;;;;;;;7.90;99.90;;;;;;4420191;32;44293;-82
2022/02/23 11:57:03;;;;;;;;;;;7.90;99.90;;;;;;4419848;32;44281;-82
2022/02/23 11:59:46;;;;;;;;;;;8.00;99.90;;;;;;4420361;32;44069;-82
2022/02/23 12:02:14;;;;;;;;;;;8.00;99.90;;;;;;4419149;32;43353;-82
2022/02/23 12:04:47;;;;;;;;;;;8.00;99.90;;;;;;4419931;32;43907;-82
2022/02/23 12:07:17;;;;;;;;;;;8.00;99.90;;;;;;4419367;32;44219;-82
2022/02/23 12:09:44;;;;;;;;;;;8.10;99.90;;;;;;4419878;32;44210;-81
2022/02/23 12:12:30;;;;;;;;;;;8.10;99.90;;;;;;4420371;32;44765;-82
2022/02/23 12:14:59;;;;;;;;;;;8.10;99.90;;;;;;4420468;32;44712;-82
2022/02/23 12:17:44;;;;;;;;;;;8.10;99.90;;;;;;4419503;32;20657;-82
2022/02/23 12:20:30;;;;;;;;;;;8.10;99.90;;;;;;4420030;32;43478;-82
2022/02/23 12:23:03;;;;;;;;;;;8.10;99.90;;;;;;4419049;32;44928;-82
2022/02/23 12:25:49;;;;;;;;;;;8.10;99.90;;;;;;4420521;32;43422;-82
2022/02/23 12:28:18;;;;;;;;;;;8.10;99.90;;;;;;4419771;32;44104;-82
2022/02/23 12:30:48;;;;;;;;;;;8.10;99.90;;;;;;4419299;32;44264;-82
2022/02/23 12:33:15;;;;;;;;;;;8.10;99.90;;;;;;4418978;32;45727;-82
2022/02/23 12:35:43;;;;;;;;;;;8.10;99.90;;;;;;4420260;32;43954;-82
2022/02/23 12:38:11;;;;;;;;;;;8.10;99.90;;;;;;4420212;32;43480;-82
2022/02/23 12:40:42;;;;;;;;;;;8.10;99.90;;;;;;4418883;32;43847;-82
2022/02/23 12:43:11;;;;;;;;;;;8.20;99.90;;;;;;4418888;32;42950;-82
2022/02/23 12:45:49;;;;;;;;;;;8.20;99.90;;;;;;4418795;32;44215;-82
2022/02/23 12:48:16;;;;;;;;;;;8.20;99.90;;;;;;4419410;32;21001;-82
2022/02/23 12:50:43;;;;;;;;;;;8.20;99.90;;;;;;4418990;32;44913;-82
2022/02/23 12:53:12;;;;;;;;;;;8.20;99.90;;;;;;4418446;32;44718;-82
2022/02/23 12:55:39;;;;;;;;;;;8.30;99.90;;;;;;4418818;32;43987;-82
2022/02/23 12:58:06;;;;;;;;;;;8.20;99.90;;;;;;4418445;32;43466;-82
2022/02/23 13:00:34;;;;;;;;;;;8.30;99.90;;;;;;4418944;32;43469;-82
2022/02/23 13:03:08;;;;;;;;;;;8.30;99.90;;;;;;4418570;32;43063;-82
2022/02/23 13:05:36;;;;;;;;;;;8.30;99.90;;;;;;4418335;32;44955;-83
2022/02/23 13:08:08;;;;;;;;;;;8.30;99.90;;;;;;4418736;32;45094;-82
2022/02/23 13:10:35;;;;;;;;;;;8.40;99.90;;;;;;4421908;32;43353;-82
2022/02/23 13:13:02;;;;;;;;;;;8.40;99.90;;;;;;4422385;32;43429;-83
2022/02/23 13:15:30;;;;;;;;;;;8.40;99.90;;;;;;4422362;32;43344;-82
2022/02/23 13:18:05;;;;;;;;;;;8.40;99.90;;;;;;4421155;32;43486;-82
2022/02/23 13:20:32;;;;;;;;;;;8.50;99.90;;;;;;4421844;32;43872;-83
2022/02/23 13:23:02;;;;;;;;;;;8.50;99.90;;;;;;4421647;32;43732;-82
2022/02/23 13:25:30;;;;;;;;;;;8.60;99.90;;;;;;4421115;32;44233;-82
2022/02/23 13:28:05;;;;;;;;;;;8.60;99.90;;;;;;4422281;32;43830;-82
2022/02/23 13:30:33;;;;;;;;;;;8.60;99.90;;;;;;4421317;32;44080;-82
2022/02/23 13:33:00;;;;;;;;;;;8.70;99.90;;;;;;4421178;32;44183;-82
2022/02/23 13:35:28;;;;;;;;;;;8.70;99.90;;;;;;4421413;32;44319;-82
2022/02/23 13:38:06;;;;;;;;;;;8.70;99.90;;;;;;4421426;32;43623;-83
2022/02/23 13:40:35;;;;;;;;;;;8.80;99.90;;;;;;4420971;32;43950;-82
2022/02/23 13:43:05;;;;;;;;;;;8.80;99.90;;;;;;4421437;32;44402;-82
2022/02/23 13:45:35;;;;;;;;;;;8.90;99.90;;;;;;4420811;32;42491;-83
2022/02/23 13:48:10;;;;;;;;;;;8.90;99.90;;;;;;4421259;32;43171;-83
2022/02/23 13:50:38;;;;;;;;;;;9.00;99.90;;;;;;4421936;32;42763;-83
2022/02/23 13:53:07;;;;;;;;;;;9.00;99.90;;;;;;4421151;32;44290;-82
2022/02/23 13:55:38;;;;;;;;;;;9.00;99.90;;;;;;4421191;32;44202;-83
2022/02/23 13:58:06;;;;;;;;;;;9.10;99.90;;;;;;4420935;32;42988;-82
2022/02/23 14:00:36;;;;;;;;;;;9.10;99.90;;;;;;4422050;32;44081;-83
2022/02/23 14:03:11;;;;;;;;;;;9.20;99.90;;;;;;4421509;32;42955;-83
2022/02/23 14:05:51;;;;;;;;;;;9.20;99.90;;;;;;4421283;32;43979;-83
2022/02/23 14:08:19;;;;;;;;;;;9.20;99.90;;;;;;4421043;32;44180;-83
2022/02/23 14:10:46;;;;;;;;;;;9.20;99.90;;;;;;4420476;32;43908;-83
2022/02/23 14:13:15;;;;;;;;;;;9.30;99.90;;;;;;4420745;32;43083;-82
2022/02/23 14:15:45;;;;;;;;;;;9.30;99.90;;;;;;4420367;32;43079;-83
2022/02/23 14:18:25;;;;;;;;;;;9.40;99.90;;;;;;4421667;32;43288;-83
2022/02/23 14:20:56;;;;;;;;;;;9.40;99.90;;;;;;4421221;32;45586;-82
2022/02/23 14:23:24;;;;;;;;;;;9.40;99.90;;;;;;4420247;32;43974;-83
2022/02/23 14:25:54;;;;;;;;;;;9.40;99.90;;;;;;4420617;32;43157;-83
2022/02/23 14:28:27;;;;;;;;;;;9.50;99.90;;;;;;4420627;32;43025;-83
2022/02/23 14:30:55;;;;;;;;;;;9.50;99.90;;;;;;4420460;32;42685;-83
2022/02/23 14:33:32;;;;;;;;;;;9.50;99.90;;;;;;4420047;32;44031;-83
2022/02/23 14:35:59;;;;;;;;;;;9.50;99.90;;;;;;4421699;32;44203;-82
2022/02/23 14:38:26;;;;;;;;;;;9.60;99.90;;;;;;4421145;32;43848;-83
2022/02/23 14:40:53;;;;;;;;;;;9.60;99.90;;;;;;4420438;32;43671;-83
2022/02/23 14:43:20;;;;;;;;;;;9.60;99.90;;;;;;4421078;32;42365;-82
2022/02/23 14:45:47;;;;;;;;;;;9.60;99.90;;;;;;4420097;32;42994;-82
2022/02/23 14:48:14;;;;;;;;;;;9.60;99.90;;;;;;4420281;32;45260;-82